Chris — V7XF8 — position and weather

sailwx.info

Track history (hours):
 
Tides and Currents Weather Stations Pressure Air Temp Water Temp Dewpoint Dewpoint Depression Visibility Wind Speed Wind Dir Waves Ship Positions

Chris

Last reported at 2016-Jun-15 16:06 UTC. Time now 2016-Jun-28 13:26 UTC.
Position S 31°26' E 030°05'.
Warning: this ship's position is 12 days out of date.

Length 225 m; draft 8.1 m.

Type: Cargo ship. MMSI: 538004472.

Date/timePositionNaut miles runAvg speedWind from/ knotsBaromVisibWave heightAir tempDewpointWater temp
2016-Jun-15 16:06S 31°26' E 030°05'6315.7
2016-Jun-15 12:07S 30°34' E 030°45'814.4
2016-Jun-15 11:33S 30°27' E 030°50'1313.1
2016-Jun-15 10:33S 30°16' E 030°58'1111.3
2016-Jun-15 09:33S 30°06' E 031°05'1111.3
2016-Jun-15 08:33S 29°57' E 031°12'1010.4
2016-Jun-15 07:33S 29°46' E 031°11'1 1.2
2016-Jun-15 06:33S 29°47' E 031°11'2 2.0
2016-Jun-15 05:33S 29°49' E 031°11'4 4.0
2016-Jun-15 04:33S 29°48' E 031°15'1110.9
2016-Jun-15 03:33S 29°41' E 031°24'1110.6
2016-Jun-15 02:33S 29°34' E 031°34'1111.1
2016-Jun-15 01:33S 29°27' E 031°43'1212.4
2016-Jun-15 00:33S 29°19' E 031°54'1514.9
2016-Jun-14 23:34S 29°09' E 032°07'1514.5
2016-Jun-14 22:34S 28°60' E 032°20'  
Track history (hours):
 
Tides and Currents Weather Stations Pressure Air Temp Water Temp Dewpoint Dewpoint Depression Visibility Wind Speed Wind Dir Waves Ship Positions

Chris

Last reported at 2016-Jun-15 16:06 UTC. Time now 2016-Jun-28 13:26 UTC.
Position S 31°26' E 030°05'.
Warning: this ship's position is 12 days out of date.

Length 225 m; draft 8.1 m.

Type: Cargo ship. MMSI: 538004472.

Date/timePositionNaut miles runAvg speedWind from/ knotsBaromVisibWave heightAir tempDewpointWater temp
2016-Jun-15 16:06S 31°26' E 030°05'6315.7
2016-Jun-15 12:07S 30°34' E 030°45'814.4
2016-Jun-15 11:33S 30°27' E 030°50'1313.1
2016-Jun-15 10:33S 30°16' E 030°58'1111.3
2016-Jun-15 09:33S 30°06' E 031°05'1111.3
2016-Jun-15 08:33S 29°57' E 031°12'1010.4
2016-Jun-15 07:33S 29°46' E 031°11'1 1.2
2016-Jun-15 06:33S 29°47' E 031°11'2 2.0
2016-Jun-15 05:33S 29°49' E 031°11'4 4.0
2016-Jun-15 04:33S 29°48' E 031°15'1110.9
2016-Jun-15 03:33S 29°41' E 031°24'1110.6
2016-Jun-15 02:33S 29°34' E 031°34'1111.1
2016-Jun-15 01:33S 29°27' E 031°43'1212.4
2016-Jun-15 00:33S 29°19' E 031°54'1514.9
2016-Jun-14 23:34S 29°09' E 032°07'1514.5
2016-Jun-14 22:34S 28°60' E 032°20'  

Dump ship's entire track history